Time;durP1;ratioP1;P1;durP2;ratioP2;P2;SDS_P1;SDS_P2;PMS_P1;PMS_P2;Temp;Humidity;BMP_temperature;BMP_pressure;BME280_temperature;BME280_humidity;BME280_pressure;Samples;Min_cycle;Max_cycle;Signal;HPM_P1;HPM_P2
2023/01/13 00:01:07;;;;;;;14.73;3.53;;;16.00;1.00;;;;;;5034868;28;20050;-38
2023/01/13 00:03:34;;;;;;;15.05;3.53;;;16.00;1.00;;;;;;5034582;28;20049;-38
2023/01/13 00:06:01;;;;;;;17.05;4.38;;;16.00;1.00;;;;;;5034804;28;20467;-38
2023/01/13 00:08:28;;;;;;;14.73;3.53;;;16.00;1.00;;;;;;5034656;28;20037;-38
2023/01/13 00:10:55;;;;;;;15.80;3.63;;;16.00;1.00;;;;;;5034478;28;20413;-38
2023/01/13 00:13:25;;;;;;;12.27;4.78;;;16.00;1.00;;;;;;5034355;28;20049;-38
2023/01/13 00:15:56;;;;;;;13.82;2.63;;;16.00;1.00;;;;;;5034591;28;20065;-38
2023/01/13 00:18:24;;;;;;;18.13;4.18;;;16.00;1.00;;;;;;5034662;28;20041;-38
2023/01/13 00:21:02;;;;;;;16.38;3.83;;;15.90;1.00;;;;;;5034473;28;20489;-38
2023/01/13 00:23:30;;;;;;;9.43;2.28;;;15.90;1.00;;;;;;5034239;28;20116;-38
2023/01/13 00:25:59;;;;;;;10.65;3.08;;;15.90;1.00;;;;;;5034026;28;20107;-38
2023/01/13 00:28:25;;;;;;;17.27;2.67;;;15.90;1.00;;;;;;5033098;28;20623;-38
2023/01/13 00:30:52;;;;;;;15.48;2.55;;;15.90;1.00;;;;;;5034283;28;20084;-38
2023/01/13 00:33:20;;;;;;;12.52;2.40;;;15.90;1.00;;;;;;5032879;28;20041;-38
2023/01/13 00:35:58;;;;;;;11.18;2.67;;;15.90;1.00;;;;;;5034328;28;20156;-38
2023/01/13 00:38:25;;;;;;;15.63;3.60;;;15.80;1.00;;;;;;5034343;28;20404;-37
2023/01/13 00:41:01;;;;;;;12.43;3.28;;;15.80;1.00;;;;;;5032786;28;20599;-37
2023/01/13 00:43:29;;;;;;;14.48;3.13;;;15.80;1.00;;;;;;5033930;28;20103;-38
2023/01/13 00:45:56;;;;;;;18.85;4.43;;;15.80;1.00;;;;;;5034091;28;20103;-37
2023/01/13 00:48:23;;;;;;;12.40;3.58;;;15.80;1.00;;;;;;5033954;28;20092;-38
2023/01/13 00:51:01;;;;;;;12.75;3.15;;;15.80;1.00;;;;;;5033868;28;20076;-39
2023/01/13 00:53:32;;;;;;;18.52;3.92;;;15.70;1.00;;;;;;5033955;28;20606;-38
2023/01/13 00:56:00;;;;;;;13.10;2.72;;;15.70;1.00;;;;;;5033864;28;20041;-38
2023/01/13 00:58:30;;;;;;;10.30;2.75;;;15.70;1.00;;;;;;5033760;28;20408;-38
2023/01/13 01:01:06;;;;;;;14.52;3.60;;;15.70;1.00;;;;;;5033704;28;20077;-38
2023/01/13 01:03:33;;;;;;;19.15;3.28;;;15.70;1.00;;;;;;5032998;28;20045;-38
2023/01/13 01:06:11;;;;;;;14.05;2.92;;;15.70;1.00;;;;;;5033770;28;20087;-37
2023/01/13 01:08:38;;;;;;;13.48;3.30;;;15.70;1.00;;;;;;5033583;28;20069;-37
2023/01/13 01:11:08;;;;;;;14.93;3.85;;;15.70;1.00;;;;;;5033500;28;20128;-37
2023/01/13 01:13:35;;;;;;;16.35;3.22;;;15.60;1.00;;;;;;5033173;28;20463;-37
2023/01/13 01:16:05;;;;;;;14.50;3.47;;;15.60;1.00;;;;;;5033416;28;20080;-36
2023/01/13 01:18:38;;;;;;;12.75;2.78;;;15.60;1.00;;;;;;5033646;28;20076;-37
2023/01/13 01:21:05;;;;;;;14.52;2.83;;;15.60;1.00;;;;;;5033381;28;20124;-36
2023/01/13 01:23:33;;;;;;;13.00;3.10;;;15.60;1.00;;;;;;5033211;28;20080;-38
2023/01/13 01:26:02;;;;;;;10.63;2.97;;;15.60;1.00;;;;;;5033206;28;20506;-37
2023/01/13 01:28:29;;;;;;;16.40;3.58;;;15.60;1.00;;;;;;5033209;28;20046;-37
2023/01/13 01:30:57;;;;;;;12.70;3.35;;;15.60;1.00;;;;;;5032947;28;20124;-37
2023/01/13 01:33:24;;;;;;;12.43;3.75;;;15.60;1.00;;;;;;5032986;28;20064;-37
2023/01/13 01:35:52;;;;;;;16.58;3.95;;;15.60;1.00;;;;;;5033112;28;20041;-37
2023/01/13 01:38:21;;;;;;;14.43;3.10;;;15.50;1.00;;;;;;5033028;28;20037;-36
2023/01/13 01:40:48;;;;;;;16.75;3.15;;;15.50;1.00;;;;;;5032937;28;20072;-37
2023/01/13 01:46:03;;;;;;;14.60;3.15;;;15.50;1.00;;;;;;5032873;28;20111;-37
2023/01/13 01:48:36;;;;;;;14.63;3.60;;;15.50;1.00;;;;;;5032831;28;20088;-37
2023/01/13 01:51:06;;;;;;;;;;;15.50;1.00;;;;;;5033131;28;20069;-37
2023/01/13 01:53:33;;;;;;;13.65;2.58;;;15.50;1.00;;;;;;5032701;28;19925;-37
2023/01/13 01:56:01;;;;;;;14.57;2.60;;;15.50;1.00;;;;;;5032645;28;20099;-36
2023/01/13 01:58:33;;;;;;;16.17;3.55;;;15.40;1.00;;;;;;5032520;28;20121;-38
2023/01/13 02:01:01;;;;;;;13.38;2.83;;;15.40;1.00;;;;;;5032669;28;20132;-37
2023/01/13 02:03:29;;;;;;;15.45;3.83;;;15.40;1.00;;;;;;5032287;28;20049;-37
2023/01/13 02:05:55;;;;;;;13.57;3.25;;;15.40;1.00;;;;;;5031326;28;20100;-37
2023/01/13 02:08:22;;;;;;;15.35;3.20;;;15.40;1.00;;;;;;5032533;28;20049;-38
2023/01/13 02:10:52;;;;;;;14.32;3.15;;;15.40;1.00;;;;;;5031283;28;20095;-37
2023/01/13 02:13:21;;;;;;;14.38;3.13;;;15.40;1.00;;;;;;5032086;28;20505;-37
2023/01/13 02:16:14;;;;;;;13.18;4.55;;;15.40;1.00;;;;;;5031667;28;20045;-38
2023/01/13 02:19:01;;;;;;;10.77;2.45;;;15.40;1.00;;;;;;5032412;28;20037;-37
2023/01/13 02:21:46;;;;;;;14.52;3.95;;;15.40;1.00;;;;;;5018708;28;20463;-38
2023/01/13 02:24:52;;;;;;;12.00;3.25;;;15.30;1.00;;;;;;5032096;28;20057;-38
2023/01/13 02:27:47;;;;;;;14.15;2.85;;;15.40;1.00;;;;;;5032190;28;20055;-38
2023/01/13 02:33:20;;;;;;;9.82;2.40;;;15.30;1.00;;;;;;5031834;28;20049;-38
2023/01/13 02:35:56;;;;;;;11.30;3.08;;;15.30;1.00;;;;;;5032121;28;20076;-38
2023/01/13 02:38:31;;;;;;;9.25;2.08;;;15.30;1.00;;;;;;5031975;28;20223;-38
2023/01/13 02:44:07;;;;;;;15.00;3.42;;;15.30;1.00;;;;;;5031726;28;20087;-37
2023/01/13 02:46:58;;;;;;;10.32;2.90;;;15.30;1.00;;;;;;5031901;28;20050;-38
2023/01/13 02:49:55;;;;;;;12.55;3.42;;;15.20;1.00;;;;;;5031905;28;20162;-38
2023/01/13 02:52:33;;;;;;;13.02;3.42;;;15.20;1.00;;;;;;5021299;28;20401;-38
2023/01/13 02:55:16;;;;;;;14.65;3.00;;;15.20;1.00;;;;;;5031805;28;20041;-38
2023/01/13 02:57:43;;;;;;;10.30;2.23;;;15.20;1.00;;;;;;5031628;28;20124;-38
2023/01/13 03:00:35;;;;;;;7.80;2.22;;;15.20;1.00;;;;;;5032445;28;20080;-80
2023/01/13 03:03:02;;;;;;;12.63;2.45;;;15.20;1.00;;;;;;5009009;28;20157;-39
2023/01/13 03:05:31;;;;;;;13.32;2.50;;;15.20;1.00;;;;;;5011868;28;20129;-39
2023/01/13 03:08:28;;;;;;;15.63;3.75;;;15.20;1.00;;;;;;5012018;28;20069;-39
2023/01/13 03:11:10;;;;;;;11.32;3.17;;;15.20;1.00;;;;;;5011847;28;20133;-39
2023/01/13 03:13:43;;;;;;;21.50;3.03;;;15.20;1.00;;;;;;5011683;28;20042;-39
2023/01/13 03:16:09;;;;;;;11.07;3.30;;;15.20;1.00;;;;;;5012105;28;20074;-40
2023/01/13 03:19:00;;;;;;;12.52;2.63;;;15.20;1.00;;;;;;5011951;28;20509;-39
2023/01/13 03:21:39;;;;;;;12.23;2.70;;;15.10;1.00;;;;;;5011806;28;20413;-39
2023/01/13 03:24:16;;;;;;;14.00;2.92;;;15.10;1.00;;;;;;5011408;28;20096;-39
2023/01/13 03:27:05;;;;;;;9.70;2.92;;;15.10;1.00;;;;;;5012395;28;20076;-39
2023/01/13 03:29:37;;;;;;;9.25;2.45;;;15.10;1.00;;;;;;5015522;28;20064;-39
2023/01/13 03:32:24;;;;;;;16.75;3.13;;;15.10;1.00;;;;;;5014875;28;20042;-39
2023/01/13 03:34:54;;;;;;;9.13;2.50;;;15.10;1.00;;;;;;5015528;28;20405;-39
2023/01/13 03:37:27;;;;;;;10.20;2.60;;;15.10;1.00;;;;;;5015442;28;20033;-39
2023/01/13 03:40:01;;;;;;;14.88;2.72;;;15.10;1.00;;;;;;5015863;28;20046;-39
2023/01/13 03:42:31;;;;;;;11.32;3.20;;;15.10;1.00;;;;;;5015058;28;20569;-40
2023/01/13 03:45:16;;;;;;;11.80;2.60;;;15.10;1.00;;;;;;5015243;28;20058;-40
2023/01/13 03:47:51;;;;;;;11.95;3.78;;;15.10;1.00;;;;;;5015447;28;20497;-39
2023/01/13 03:50:24;;;;;;;11.90;2.33;;;15.10;1.00;;;;;;5015224;28;20464;-39
2023/01/13 03:53:03;;;;;;;20.70;4.57;;;15.10;1.00;;;;;;5014950;28;20045;-39
2023/01/13 03:55:34;;;;;;;8.65;2.38;;;15.00;1.00;;;;;;5015393;28;20056;-39
2023/01/13 03:58:14;;;;;;;7.15;2.58;;;15.00;1.00;;;;;;5013969;28;20046;-39
2023/01/13 04:01:04;;;;;;;9.05;2.05;;;15.00;1.00;;;;;;5013565;28;20052;-39
2023/01/13 04:03:41;;;;;;;14.75;3.67;;;15.00;1.00;;;;;;4995264;28;20125;-39
2023/01/13 04:06:16;;;;;;;13.38;3.15;;;15.00;1.00;;;;;;4995608;28;20042;-39
2023/01/13 04:09:00;;;;;;;14.82;2.47;;;15.00;1.00;;;;;;4995516;28;20050;-39
2023/01/13 04:11:34;;;;;;;11.23;2.88;;;15.00;1.00;;;;;;4993988;28;20568;-39
2023/01/13 04:14:03;;;;;;;14.15;3.15;;;15.00;1.00;;;;;;5010160;28;20046;-40
2023/01/13 04:16:30;;;;;;;15.85;3.55;;;15.00;1.00;;;;;;4995310;28;20038;-39
2023/01/13 04:18:57;;;;;;;14.75;2.72;;;15.00;1.00;;;;;;4995233;28;20050;-37
2023/01/13 04:21:24;;;;;;;27.70;3.38;;;15.00;1.00;;;;;;4995088;28;20046;-39
2023/01/13 04:23:51;;;;;;;10.75;2.75;;;14.90;1.00;;;;;;4994940;28;20117;-40
2023/01/13 04:26:18;;;;;;;8.95;2.30;;;15.00;1.00;;;;;;4994943;28;20053;-39
2023/01/13 04:28:45;;;;;;;11.38;2.38;;;15.00;1.00;;;;;;4995170;28;20046;-39
2023/01/13 04:31:12;;;;;;;9.10;2.13;;;14.90;1.00;;;;;;4993660;28;20038;-39
2023/01/13 04:33:39;;;;;;;9.07;2.60;;;14.90;1.00;;;;;;4994817;28;20401;-39
2023/01/13 04:36:06;;;;;;;14.05;2.90;;;14.90;1.00;;;;;;4993631;28;20042;-39
2023/01/13 04:38:33;;;;;;;11.13;2.47;;;14.90;1.00;;;;;;4994215;28;20054;-39
2023/01/13 04:41:00;;;;;;;10.77;2.53;;;14.90;1.00;;;;;;4994666;28;20081;-39
2023/01/13 04:43:26;;;;;;;14.70;2.78;;;14.90;1.00;;;;;;4994493;28;20473;-39
2023/01/13 04:45:53;;;;;;;11.15;3.53;;;14.90;1.00;;;;;;4994753;28;20066;-39
2023/01/13 04:48:20;;;;;;;12.02;3.88;;;14.90;1.00;;;;;;4995136;28;20478;-38
2023/01/13 04:50:47;;;;;;;12.15;2.47;;;14.90;1.00;;;;;;4994530;28;20117;-40
2023/01/13 04:53:13;;;;;;;12.05;3.05;;;14.90;1.00;;;;;;4994223;28;20042;-38
2023/01/13 04:55:40;;;;;;;11.88;3.03;;;14.90;1.00;;;;;;4994546;28;20038;-38
2023/01/13 04:58:09;;;;;;;9.73;2.47;;;14.90;1.00;;;;;;4994591;28;20069;-38
2023/01/13 05:00:36;;;;;;;11.98;2.67;;;14.90;1.00;;;;;;5009432;28;20052;-38
2023/01/13 05:03:03;;;;;;;8.30;3.40;;;14.90;1.00;;;;;;4994185;28;20042;-38
2023/01/13 05:05:30;;;;;;;9.25;2.53;;;14.90;1.00;;;;;;4994300;28;20042;-38
2023/01/13 05:07:57;;;;;;;10.82;2.70;;;14.80;1.00;;;;;;4994317;28;20046;-37
2023/01/13 05:10:24;;;;;;;16.60;2.97;;;14.90;1.00;;;;;;5008469;28;20560;-38
2023/01/13 05:18:25;;;;;;;13.82;2.95;;;14.80;1.00;;;;;;5013799;28;20116;-38
2023/01/13 05:20:52;;;;;;;16.17;2.42;;;14.80;1.00;;;;;;5013622;28;20141;-38
2023/01/13 05:26:04;;;;;;;13.88;3.35;;;14.80;1.00;;;;;;5013357;28;20038;-38
2023/01/13 05:28:33;;;;;;;13.63;2.78;;;14.80;1.00;;;;;;5013751;28;20695;-38
2023/01/13 05:31:00;;;;;;;9.88;2.33;;;14.80;1.00;;;;;;5013246;28;20108;-38
2023/01/13 05:33:27;;;;;;;18.45;3.17;;;14.80;1.00;;;;;;5013261;28;20038;-38
2023/01/13 05:35:53;;;;;;;17.55;4.03;;;14.80;1.00;;;;;;5013310;28;20038;-38
2023/01/13 05:38:20;;;;;;;10.25;2.75;;;14.80;1.00;;;;;;5013370;28;20547;-38
2023/01/13 05:43:33;;;;;;;16.13;3.33;;;14.80;1.00;;;;;;5012917;28;20054;-38
2023/01/13 05:46:03;;;;;;;9.82;3.63;;;14.70;1.00;;;;;;5012051;28;20095;-39
2023/01/13 05:48:34;;;;;;;10.10;2.38;;;14.80;1.00;;;;;;5013231;28;20042;-38
2023/01/13 05:51:02;;;;;;;14.98;2.35;;;14.70;1.00;;;;;;5011808;28;20046;-38
2023/01/13 05:53:30;;;;;;;8.20;2.28;;;14.80;1.00;;;;;;5009858;28;20046;-38
2023/01/13 05:55:56;;;;;;;16.17;2.83;;;14.70;1.00;;;;;;5012071;28;20057;-38
2023/01/13 05:58:25;;;;;;;14.57;3.10;;;14.70;1.00;;;;;;5012930;28;20053;-38
2023/01/13 06:00:57;;;;;;;12.85;3.40;;;14.70;1.00;;;;;;5011690;28;20076;-38
2023/01/13 06:03:24;;;;;;;13.77;2.93;;;14.70;1.00;;;;;;5011524;28;20046;-38
2023/01/13 06:05:57;;;;;;;14.98;3.58;;;14.70;1.00;;;;;;5012733;28;20042;-38
2023/01/13 06:08:24;;;;;;;13.43;2.70;;;14.70;1.00;;;;;;5011620;28;20061;-38
2023/01/13 06:10:51;;;;;;;18.67;3.33;;;14.70;1.00;;;;;;5012684;28;20331;-38
2023/01/13 06:13:18;;;;;;;9.90;2.95;;;14.70;1.00;;;;;;5011237;28;20046;-38
2023/01/13 06:15:45;;;;;;;11.43;2.75;;;14.70;1.00;;;;;;5012665;28;20033;-39
2023/01/13 06:18:12;;;;;;;15.38;3.25;;;14.70;1.00;;;;;;5012606;28;20073;-39
2023/01/13 06:20:39;;;;;;;13.70;2.40;;;14.70;1.00;;;;;;4994965;28;20052;-38
2023/01/13 06:23:09;;;;;;;11.80;3.13;;;14.70;1.00;;;;;;5012232;28;20073;-38
2023/01/13 06:25:50;;;;;;;11.40;2.85;;;14.70;1.00;;;;;;5012614;28;20046;-38
2023/01/13 06:28:17;;;;;;;15.55;2.83;;;14.70;1.00;;;;;;5012566;28;20417;-38
2023/01/13 06:30:51;;;;;;;12.27;2.50;;;14.70;1.00;;;;;;5012177;28;20493;-38
2023/01/13 06:33:23;;;;;;;18.23;2.40;;;14.60;1.00;;;;;;5012039;28;20042;-38
2023/01/13 06:35:59;;;;;;;17.52;3.13;;;14.60;1.00;;;;;;5011155;28;20049;-38
2023/01/13 06:38:28;;;;;;;16.60;2.75;;;14.60;1.00;;;;;;5012294;28;20045;-38
2023/01/13 06:40:55;;;;;;;12.27;3.10;;;14.60;1.00;;;;;;5012169;28;20510;-38
2023/01/13 06:43:22;;;;;;;17.45;4.25;;;14.70;1.00;;;;;;5011825;28;20121;-38
2023/01/13 06:45:52;;;;;;;9.07;2.47;;;14.60;1.00;;;;;;5012215;28;20137;-38
2023/01/13 06:48:31;;;;;;;10.48;3.75;;;14.60;1.00;;;;;;5012262;28;20073;-38
2023/01/13 06:50:59;;;;;;;13.02;2.10;;;14.60;1.00;;;;;;5012036;28;20046;-38
2023/01/13 06:53:25;;;;;;;22.52;2.50;;;14.60;1.00;;;;;;5011731;28;20509;-38
2023/01/13 06:55:52;;;;;;;13.95;2.80;;;14.60;1.00;;;;;;5012012;28;20410;-38
2023/01/13 06:58:19;;;;;;;18.67;3.05;;;14.60;1.00;;;;;;5012078;28;20489;-38
2023/01/13 07:00:50;;;;;;;11.73;3.88;;;14.60;1.00;;;;;;5011558;28;20624;-38
2023/01/13 07:03:18;;;;;;;7.18;2.30;;;14.60;1.00;;;;;;5011570;28;20049;-38
2023/01/13 07:05:53;;;;;;;9.23;2.70;;;14.60;1.00;;;;;;5010887;28;20069;-38
2023/01/13 07:08:21;;;;;;;8.85;2.72;;;14.60;1.00;;;;;;5011830;28;20048;-38
2023/01/13 07:10:48;;;;;;;11.07;2.97;;;14.60;1.00;;;;;;5011907;28;20073;-38
2023/01/13 07:16:02;;;;;;;12.00;3.65;;;14.60;1.00;;;;;;5011999;28;20061;-38
2023/01/13 07:18:31;;;;;;;12.63;3.03;;;14.50;1.00;;;;;;5011791;28;20038;-38
2023/01/13 07:21:04;;;;;;;16.80;3.42;;;14.60;1.00;;;;;;5011687;28;20042;-38
2023/01/13 07:23:33;;;;;;;16.30;3.22;;;14.50;1.00;;;;;;5011665;28;20121;-38
2023/01/13 07:26:00;;;;;;;9.35;2.20;;;14.50;1.00;;;;;;5011807;28;20057;-38
2023/01/13 07:28:29;;;;;;;12.07;2.40;;;14.50;1.00;;;;;;5010624;28;20054;-38
2023/01/13 07:30:56;;;;;;;9.15;2.78;;;14.50;1.00;;;;;;5011813;28;20117;-38
2023/01/13 07:33:24;;;;;;;14.40;3.67;;;14.50;1.00;;;;;;5011412;28;20486;-38
2023/01/13 07:36:02;;;;;;;18.80;3.95;;;14.50;1.00;;;;;;5011821;28;20390;-38
2023/01/13 07:38:30;;;;;;;12.77;2.45;;;14.50;1.00;;;;;;5011733;28;20052;-38
2023/01/13 07:40:57;;;;;;;12.38;2.60;;;14.50;1.00;;;;;;5011653;28;20077;-38
2023/01/13 07:43:33;;;;;;;10.88;3.38;;;14.50;1.00;;;;;;5011309;28;20045;-38
2023/01/13 07:46:03;;;;;;;13.65;4.03;;;14.50;1.00;;;;;;5010370;28;20045;-38
2023/01/13 07:48:32;;;;;;;10.63;2.60;;;14.50;1.00;;;;;;5010407;28;20049;-38
2023/01/13 07:51:10;;;;;;;12.30;2.28;;;14.50;1.00;;;;;;5011545;28;20046;-38
2023/01/13 07:53:38;;;;;;;14.60;3.08;;;14.50;1.00;;;;;;5011321;28;20049;-38
2023/01/13 07:56:06;;;;;;;12.05;3.38;;;14.50;1.00;;;;;;5011339;28;20466;-38
2023/01/13 07:58:34;;;;;;;14.80;2.83;;;14.50;1.00;;;;;;5011503;28;20049;-38
2023/01/13 08:01:09;;;;;;;15.25;3.10;;;14.40;1.00;;;;;;5007977;28;20042;-38
2023/01/13 08:03:37;;;;;;;12.90;2.55;;;14.50;1.00;;;;;;5007816;28;20050;-38
2023/01/13 08:06:05;;;;;;;10.60;2.85;;;14.50;1.00;;;;;;5006438;28;20509;-38
2023/01/13 08:08:32;;;;;;;16.08;3.17;;;14.40;1.00;;;;;;5004546;28;20061;-38
2023/01/13 08:11:03;;;;;;;15.90;2.85;;;14.50;1.00;;;;;;5007934;28;20046;-38
2023/01/13 08:13:30;;;;;;;12.43;2.53;;;14.40;1.00;;;;;;5008462;28;20041;-38
2023/01/13 08:16:08;;;;;;;13.80;2.95;;;14.40;1.00;;;;;;5010694;28;20045;-38
2023/01/13 08:18:36;;;;;;;12.73;2.78;;;14.40;1.00;;;;;;5009731;28;20231;-38
2023/01/13 08:21:06;;;;;;;13.48;2.65;;;14.40;1.00;;;;;;5010027;28;20113;-38
2023/01/13 08:23:33;;;;;;;15.38;3.92;;;14.40;1.00;;;;;;5013214;28;20057;-39
2023/01/13 08:26:02;;;;;;;15.13;3.53;;;14.40;1.00;;;;;;5014643;28;20279;-38
2023/01/13 08:28:30;;;;;;;8.48;2.80;;;14.40;1.00;;;;;;5014743;28;20050;-38
2023/01/13 08:31:01;;;;;;;13.93;2.22;;;14.40;1.00;;;;;;5013040;28;20141;-38
2023/01/13 08:33:29;;;;;;;9.57;2.58;;;14.40;1.00;;;;;;5012984;28;20078;-38
2023/01/13 08:35:55;;;;;;;11.73;2.75;;;14.40;1.00;;;;;;5014366;28;20403;-38
2023/01/13 08:38:23;;;;;;;10.10;2.28;;;14.40;1.00;;;;;;5014561;28;20077;-38
2023/01/13 08:40:50;;;;;;;14.63;2.40;;;14.40;1.00;;;;;;5014219;28;20057;-38
2023/01/13 08:43:17;;;;;;;10.60;2.30;;;14.40;1.00;;;;;;5014174;28;20084;-38
2023/01/13 08:45:43;;;;;;;10.55;2.38;;;14.40;1.00;;;;;;5014209;28;20046;-39
2023/01/13 08:48:11;;;;;;;13.20;3.05;;;14.40;1.00;;;;;;5014198;28;20080;-38
2023/01/13 08:50:37;;;;;;;12.18;3.05;;;14.30;1.00;;;;;;5013897;28;20471;-38
2023/01/13 08:53:04;;;;;;;9.20;2.38;;;14.30;1.00;;;;;;5013928;28;20061;-38
2023/01/13 08:55:31;;;;;;;11.45;3.35;;;14.40;1.00;;;;;;5012746;28;20494;-38
2023/01/13 08:57:57;;;;;;;8.10;2.20;;;14.30;1.00;;;;;;5012784;28;20050;-38
2023/01/13 09:00:41;;;;;;;9.45;2.40;;;14.30;1.00;;;;;;5013731;28;20068;-38
2023/01/13 09:03:07;;;;;;;20.85;3.45;;;14.30;1.00;;;;;;5013838;28;20140;-38
2023/01/13 09:05:35;;;;;;;14.07;2.92;;;14.30;1.00;;;;;;5013764;28;20042;-39
2023/01/13 09:08:35;;;;;;;7.07;1.98;;;14.30;1.00;;;;;;4973294;28;20125;-32
2023/01/13 09:13:10;;;;;;;17.27;3.60;;;14.30;1.00;;;;;;4974723;28;20594;-32
2023/01/13 09:13:49;;;;;;;20.00;3.58;;;14.30;1.00;;;;;;4974298;28;20101;-32
2023/01/13 09:16:16;;;;;;;17.27;2.78;;;14.30;1.00;;;;;;4974563;28;20042;-32
2023/01/13 09:18:43;;;;;;;14.27;2.33;;;14.30;1.00;;;;;;4974797;28;20124;-32
2023/01/13 09:21:10;;;;;;;10.82;2.42;;;14.30;1.00;;;;;;4974643;28;20047;-33
2023/01/13 09:23:37;;;;;;;15.98;2.22;;;14.30;1.00;;;;;;4974387;28;20043;-33
2023/01/13 09:26:04;;;;;;;9.93;3.15;;;14.30;1.00;;;;;;4973964;28;20042;-32
2023/01/13 09:28:31;;;;;;;9.35;2.47;;;14.30;1.00;;;;;;4974652;28;20046;-32
2023/01/13 09:31:00;;;;;;;14.55;3.42;;;14.30;1.00;;;;;;4974366;28;20515;-32
2023/01/13 09:36:12;;;;;;;9.98;2.40;;;14.30;1.00;;;;;;4974336;28;20031;-33
2023/01/13 09:38:39;;;;;;;11.95;2.65;;;14.30;1.00;;;;;;4974370;28;20459;-32
2023/01/13 09:43:52;;;;;;;11.45;2.58;;;14.30;1.00;;;;;;4989035;28;20506;-32
2023/01/13 09:43:58;;;;;;;12.20;2.90;;;14.30;1.00;;;;;;4974112;28;20049;-31
2023/01/13 09:46:51;;;;;;;11.90;2.63;;;14.30;1.00;;;;;;4974177;28;20113;-31
2023/01/13 09:49:22;;;;;;;10.73;3.00;;;14.30;1.00;;;;;;4974183;28;20054;-31
2023/01/13 09:52:08;;;;;;;5.85;1.92;;;14.30;1.00;;;;;;4973998;28;20042;-31
2023/01/13 09:55:04;;;;;;;13.30;2.95;;;14.30;1.00;;;;;;4973946;28;20042;-31
2023/01/13 09:57:36;;;;;;;4.95;1.58;;;14.30;1.00;;;;;;4971181;28;20126;-32
2023/01/13 10:00:10;;;;;;;10.65;2.42;;;14.30;1.00;;;;;;4973844;28;20038;-32
2023/01/13 10:02:55;;;;;;;13.65;2.42;;;14.20;1.00;;;;;;4973810;28;20134;-32
2023/01/13 10:05:39;;;;;;;16.48;2.67;;;14.20;1.00;;;;;;4973784;28;20047;-32
2023/01/13 10:08:22;;;;;;;9.52;2.25;;;14.20;1.00;;;;;;4973806;28;20131;-31
2023/01/13 10:10:54;;;;;;;8.27;3.00;;;14.20;1.00;;;;;;4973757;28;20035;-32
2023/01/13 10:13:23;;;;;;;14.13;3.45;;;14.20;1.00;;;;;;4973432;28;20050;-32
2023/01/13 10:16:08;;;;;;;8.20;2.22;;;14.20;1.00;;;;;;4973481;28;20042;-31
2023/01/13 10:18:58;;;;;;;7.38;2.00;;;14.20;1.00;;;;;;4973603;28;20039;-32
2023/01/13 10:21:40;;;;;;;16.17;2.90;;;14.20;1.00;;;;;;4965764;28;20078;-31
2023/01/13 10:24:43;;;;;;;12.68;3.67;;;14.20;1.00;;;;;;4973303;28;20050;-32
2023/01/13 10:27:23;;;;;;;11.80;2.47;;;14.20;1.00;;;;;;4973301;28;20414;-32
2023/01/13 10:29:50;;;;;;;15.20;2.78;;;14.20;1.00;;;;;;4973540;28;20122;-31
2023/01/13 10:32:17;;;;;;;10.82;2.42;;;14.20;1.00;;;;;;4971684;28;20061;-32
2023/01/13 10:34:56;;;;;;;8.98;2.67;;;14.20;1.00;;;;;;4973669;28;20487;-32
2023/01/13 10:37:25;;;;;;;12.85;2.35;;;14.20;1.00;;;;;;4972434;28;20093;-31
2023/01/13 10:39:59;;;;;;;10.43;2.35;;;14.20;1.00;;;;;;4973333;28;20046;-32
2023/01/13 10:42:26;;;;;;;12.80;3.40;;;14.20;1.00;;;;;;4972842;28;20558;-32
2023/01/13 10:44:58;;;;;;;11.43;2.28;;;14.20;1.00;;;;;;4973157;28;20070;-32
2023/01/13 10:47:36;;;;;;;15.98;3.00;;;14.20;1.00;;;;;;4973420;28;20081;-31
2023/01/13 10:50:11;;;;;;;12.25;2.58;;;14.20;1.00;;;;;;4973053;28;20051;-32
2023/01/13 10:52:53;;;;;;;11.75;2.55;;;14.20;1.00;;;;;;4972727;28;20269;-32
2023/01/13 10:55:23;;;;;;;8.82;2.50;;;14.20;1.00;;;;;;4973061;28;20043;-32
2023/01/13 10:57:50;;;;;;;9.55;3.15;;;14.20;1.00;;;;;;4972876;28;20046;-32
2023/01/13 11:00:29;;;;;;;6.78;1.50;;;14.20;1.00;;;;;;4973185;28;20447;-32
2023/01/13 11:03:22;;;;;;;10.52;2.95;;;14.20;1.00;;;;;;4987577;28;20046;-32
2023/01/13 11:05:59;;;;;;;12.60;2.85;;;14.20;1.00;;;;;;4972794;28;20097;-34
2023/01/13 11:08:29;;;;;;;17.52;3.42;;;14.20;1.00;;;;;;4972973;28;20106;-32
2023/01/13 11:10:58;;;;;;;15.40;2.33;;;14.20;1.00;;;;;;4972752;28;20117;-32
2023/01/13 11:13:34;;;;;;;10.80;1.77;;;14.20;1.00;;;;;;4972489;28;20039;-32
2023/01/13 11:16:11;;;;;;;13.70;2.58;;;14.20;1.00;;;;;;4972413;28;20054;-32
2023/01/13 11:19:01;;;;;;;11.80;3.08;;;14.20;1.00;;;;;;4972799;28;20122;-32
2023/01/13 11:21:35;;;;;;;8.00;2.60;;;14.20;1.00;;;;;;4972631;28;20399;-32
2023/01/13 11:24:15;;;;;;;15.82;2.45;;;14.20;1.00;;;;;;4972597;28;20097;-31
2023/01/13 11:27:08;;;;;;;8.48;2.40;;;14.10;1.00;;;;;;4972344;28;20453;-31
2023/01/13 11:29:54;;;;;;;4.80;1.55;;;14.10;1.00;;;;;;4936119;28;20055;-31
2023/01/13 11:32:23;;;;;;;11.13;3.08;;;14.10;1.00;;;;;;4972466;28;20058;-31
2023/01/13 11:34:55;;;;;;;11.70;1.98;;;14.10;1.00;;;;;;4971297;28;20106;-31
2023/01/13 11:37:30;;;;;;;10.00;2.25;;;14.10;1.00;;;;;;4972637;28;20075;-31
2023/01/13 11:40:11;;;;;;;10.00;2.13;;;14.10;1.00;;;;;;4972662;28;20043;-34
2023/01/13 11:42:58;;;;;;;10.10;2.58;;;14.10;1.00;;;;;;4972369;28;20502;-36
2023/01/13 11:45:43;;;;;;;9.23;1.65;;;14.20;1.00;;;;;;4972599;28;20039;-37
2023/01/13 11:48:20;;;;;;;11.65;2.38;;;14.10;1.00;;;;;;4989232;28;20050;-33
2023/01/13 11:51:08;;;;;;;13.23;1.63;;;14.10;1.00;;;;;;4976328;28;20126;-35
2023/01/13 11:54:04;;;;;;;7.07;1.67;;;14.10;1.00;;;;;;4976053;28;20443;-35
2023/01/13 11:56:40;;;;;;;9.70;2.15;;;14.10;1.00;;;;;;4926021;28;20051;-35
2023/01/13 11:59:22;;;;;;;10.40;1.88;;;14.10;1.00;;;;;;4976293;28;20482;-35
2023/01/13 12:01:58;;;;;;;8.88;2.25;;;14.10;1.00;;;;;;4976299;28;20478;-33
2023/01/13 12:04:32;;;;;;;6.30;1.85;;;14.10;1.00;;;;;;4974721;28;20048;-38
2023/01/13 12:07:16;;;;;;;7.18;1.60;;;14.10;1.00;;;;;;4975586;28;20058;-35
2023/01/13 12:10:11;;;;;;;9.38;2.72;;;14.10;1.00;;;;;;4975895;28;20038;-36
2023/01/13 12:12:48;;;;;;;4.38;1.83;;;14.10;1.00;;;;;;4989677;28;20126;-36
2023/01/13 12:15:21;;;;;;;12.13;2.47;;;14.10;1.00;;;;;;4975721;28;20101;-39
2023/01/13 12:18:06;;;;;;;7.90;1.98;;;14.10;1.00;;;;;;4975777;28;20043;-37
2023/01/13 12:20:39;;;;;;;10.02;2.85;;;14.10;1.00;;;;;;4975764;28;20039;-37
2023/01/13 12:23:15;;;;;;;8.02;1.50;;;14.10;1.00;;;;;;4990292;28;20046;-39
2023/01/13 12:25:51;;;;;;;9.00;1.92;;;14.10;1.00;;;;;;4975496;28;20081;-33
2023/01/13 12:28:31;;;;;;;10.93;2.50;;;14.10;1.00;;;;;;4975767;28;20049;-35
2023/01/13 12:31:00;;;;;;;9.30;2.35;;;14.10;1.00;;;;;;4975499;28;20043;-39
2023/01/13 12:34:00;;;;;;;5.43;1.80;;;14.10;1.00;;;;;;4975169;28;20043;-37
2023/01/13 12:36:50;;;;;;;6.40;1.75;;;14.10;1.00;;;;;;4975432;28;20049;-35
2023/01/13 12:39:44;;;;;;;9.05;2.08;;;14.10;1.00;;;;;;4975574;28;20046;-35
2023/01/13 12:45:10;;;;;;;;;;;14.10;1.00;;;;;;4975760;28;20066;-37
2023/01/13 12:47:42;;;;;;;8.88;2.28;;;14.10;1.00;;;;;;4975256;28;19976;-36
2023/01/13 12:50:21;;;;;;;9.13;2.17;;;14.10;1.00;;;;;;4975328;28;20046;-39
2023/01/13 12:52:48;;;;;;;11.23;1.70;;;14.10;1.00;;;;;;4974774;28;20046;-36
2023/01/13 12:55:35;;;;;;;8.88;2.13;;;14.10;1.00;;;;;;4975041;28;20055;-37
2023/01/13 12:58:04;;;;;;;7.63;2.58;;;14.10;1.00;;;;;;4973759;28;20074;-38
2023/01/13 13:00:40;;;;;;;5.70;2.33;;;14.10;1.00;;;;;;4974256;28;20035;-33
2023/01/13 13:03:10;;;;;;;7.03;1.92;;;14.10;1.00;;;;;;4974803;28;20050;-37
2023/01/13 13:05:48;;;;;;;8.80;1.63;;;14.10;1.00;;;;;;4974917;28;20051;-35
2023/01/13 13:08:22;;;;;;;12.13;2.63;;;14.10;1.00;;;;;;4974970;28;20043;-35
2023/01/13 13:11:04;;;;;;;9.95;1.83;;;14.10;1.00;;;;;;4974874;28;20057;-35
2023/01/13 13:13:45;;;;;;;5.47;1.73;;;14.10;1.00;;;;;;4974546;28;20471;-37
2023/01/13 13:16:28;;;;;;;12.80;1.88;;;14.10;1.00;;;;;;4974646;28;20101;-37
2023/01/13 13:19:17;;;;;;;9.73;2.13;;;14.10;1.00;;;;;;4989655;28;20145;-35
2023/01/13 13:22:05;;;;;;;9.77;2.35;;;14.10;1.00;;;;;;4974638;28;20039;-37
2023/01/13 13:24:32;;;;;;;3.20;1.35;;;14.10;1.00;;;;;;4974465;28;20130;-34
2023/01/13 13:27:34;;;;;;;7.70;1.73;;;14.10;1.00;;;;;;4974371;28;20042;-38
2023/01/13 13:30:12;;;;;;;8.95;2.55;;;14.00;1.00;;;;;;4974554;28;20078;-35
2023/01/13 13:33:03;;;;;;;9.40;1.75;;;14.10;1.00;;;;;;4974134;28;20075;-36
2023/01/13 13:35:42;;;;;;;9.70;1.55;;;14.00;1.00;;;;;;4974314;28;20043;-37
2023/01/13 13:47:20;;;;;;;10.60;2.63;;;14.10;1.00;;;;;;4974132;28;20458;-36
2023/01/13 13:49:52;;;;;;;10.18;1.70;;;14.10;1.00;;;;;;4974239;28;20050;-36
2023/01/13 13:52:29;;;;;;;13.07;2.95;;;14.00;1.00;;;;;;4973799;28;20054;-39
2023/01/13 13:55:08;;;;;;;7.70;1.85;;;14.10;1.00;;;;;;4973970;28;20122;-39
2023/01/13 13:57:41;;;;;;;9.85;1.73;;;14.10;1.00;;;;;;4973786;28;20054;-36
2023/01/13 14:00:34;;;;;;;8.65;1.55;;;14.10;1.00;;;;;;4974028;28;20045;-38